Accueil
METAR-TAF:

METAR-TAF

Aéroports :

Aéroport de Perpignan-Rivesaltes

Perpignan, France

latitude: 42-44N, longitude: 002-52E, altitude: 43 m

Observation

Le bulletin a été fait il y a 23 minutes, à 22:30 UTC
Vent 3 kt de direction variable
Température 24°C
Humidité 38%
Pression 1020 hPa
Visibilité 10 km ou plus
pas de nuages en-dessous de 1500 mètres et pas de cumulonimbus.

METAR: LFMP 222230Z AUTO VRB03KT CAVOK 24/09 Q1020

Heure: 00:53 (22:53 UTC)

Prévision

Le bulletin a été fait il y a 8 heures et 53 minutes, à 14:00 UTC
Prévision valable du 22 à 15 UTC au 23 à 15 UTC
Vent 10 kt de nord-ouest
Visibilité 10 km ou plus
pas de nuages en-dessous de 1500 mètres et pas de cumulonimbus.
Evoluant progressivement
du 23 à 01 UTC au 23 à 03 UTC
Vent 5 kt de direction variable
Evoluant progressivement
du 23 à 11 UTC au 23 à 13 UTC
Vent 10 kt de est/sud-est

TAF: LFMP 221400Z 2215/2315 32010KT CAVOK BECMG 2301/2303 VRB05KT BECMG 2311/2313 11010KT

Observations et prévisions météorologiques de plus de 4000 aéroports (messages METAR et TAF).

Les stations disponibles sont représentées par des disques jaunes et rouges sur la carte.

Passer la souris dessus pour voir le nom de la station.

Cliquer dessus pour voir les observations et prévisions météorologiques.

Pour changer de carte: cliquez sur les boutons verts avec une croix noire pour zoomer, sur le bouton vert avec un tiret pour effectuer un zoom arrière, ou sur les flèches vertes pour les cartes adjacentes.


METAR-TAF: